Time;durP1;ratioP1;P1;durP2;ratioP2;P2;SDS_P1;SDS_P2;PMS_P1;PMS_P2;Temp;Humidity;BMP_temperature;BMP_pressure;BME280_temperature;BME280_humidity;BME280_pressure;Samples;Min_cycle;Max_cycle;Signal;HPM_P1;HPM_P2
2020/12/18 00:01:32;;;;;;;37.33;25.27;;;;;;;3.48;86.21;100726.89;1780990;80;25712;-67
2020/12/18 00:04:15;;;;;;;33.20;23.73;;;;;;;3.49;86.07;100726.01;1766297;79;25746;-68
2020/12/18 00:06:42;;;;;;;31.37;22.90;;;;;;;3.53;86.06;100726.30;1752364;81;25089;-67
2020/12/18 00:09:09;;;;;;;31.30;22.90;;;;;;;3.55;85.90;100727.55;1752433;81;25627;-67
2020/12/18 00:11:36;;;;;;;31.40;23.53;;;;;;;3.55;85.90;100730.16;1752560;81;25239;-67
2020/12/18 00:14:03;;;;;;;34.43;23.77;;;;;;;3.56;85.86;100724.06;1752552;81;25722;-67
2020/12/18 00:16:32;;;;;;;35.73;24.20;;;;;;;3.58;85.99;100732.21;1752951;81;25207;-68
2020/12/18 00:18:58;;;;;;;34.10;24.67;;;;;;;3.61;85.96;100731.28;1752906;81;25701;-67
2020/12/18 00:21:27;;;;;;;33.80;23.20;;;;;;;3.62;85.98;100731.23;1752952;81;25956;-68
2020/12/18 00:23:54;;;;;;;32.63;23.43;;;;;;;3.67;86.15;100738.45;1752983;81;25088;-67
2020/12/18 00:26:20;;;;;;;36.80;24.03;;;;;;;3.74;86.20;100738.23;1752974;81;25072;-67
2020/12/18 00:28:48;;;;;;;34.80;24.60;;;;;;;3.77;86.16;100739.44;1752866;81;25159;-69
2020/12/18 00:31:14;;;;;;;34.10;24.07;;;;;;;3.76;86.19;100732.55;1752869;81;25538;-66
2020/12/18 00:33:41;;;;;;;34.77;24.83;;;;;;;3.78;86.18;100731.59;1752783;81;25161;-67
2020/12/18 00:36:11;;;;;;;35.27;24.43;;;;;;;3.75;86.31;100734.28;1753086;81;25098;-69
2020/12/18 00:38:38;;;;;;;34.93;23.63;;;;;;;3.78;86.41;100737.25;1753047;81;25232;-67
2020/12/18 00:41:05;;;;;;;31.93;22.77;;;;;;;3.78;86.44;100735.95;1752948;81;25227;-67
2020/12/18 00:43:34;;;;;;;36.00;25.00;;;;;;;3.78;86.57;100738.55;1752937;81;25161;-68
2020/12/18 00:46:03;;;;;;;34.10;23.87;;;;;;;3.77;86.62;100741.61;1753008;81;25228;-67
2020/12/18 00:48:30;;;;;;;35.43;24.70;;;;;;;3.75;86.79;100738.19;1730248;81;25227;-68
2020/12/18 00:50:56;;;;;;;35.13;24.83;;;;;;;3.77;86.92;100736.84;1752920;81;25085;-69
2020/12/18 00:53:23;;;;;;;35.30;25.23;;;;;;;3.77;87.00;100742.04;1752816;81;25655;-68
2020/12/18 00:55:50;;;;;;;38.20;27.30;;;;;;;3.77;87.26;100739.44;1729526;81;25121;-68
2020/12/18 00:58:17;;;;;;;43.50;27.67;;;;;;;3.76;87.22;100742.96;1752970;81;25177;-68
2020/12/18 01:00:44;;;;;;;39.63;26.67;;;;;;;3.76;87.32;100745.56;1752916;81;25619;-68
2020/12/18 01:03:13;;;;;;;39.70;27.20;;;;;;;3.76;87.40;100749.01;1752056;81;25145;-67
2020/12/18 01:05:41;;;;;;;35.37;24.67;;;;;;;3.76;87.48;100755.97;1753038;81;25176;-68
2020/12/18 01:08:09;;;;;;;36.50;24.97;;;;;;;3.79;87.52;100761.05;1753022;81;25307;-69
2020/12/18 01:10:36;;;;;;;35.13;24.50;;;;;;;3.81;87.52;100763.19;1753112;81;25780;-68
2020/12/18 01:13:03;;;;;;;38.33;26.53;;;;;;;3.82;87.50;100760.96;1753136;81;25196;-68
2020/12/18 01:15:31;;;;;;;35.07;24.60;;;;;;;3.83;87.56;100758.31;1752974;81;25287;-68
2020/12/18 01:17:59;;;;;;;34.07;25.50;;;;;;;3.83;87.62;100760.92;1753143;81;25362;-69
2020/12/18 01:20:27;;;;;;;38.83;25.43;;;;;;;3.82;87.59;100755.76;1753137;81;25707;-68
2020/12/18 01:22:54;;;;;;;38.03;24.97;;;;;;;3.82;87.69;100764.44;1752937;81;25554;-68
2020/12/18 01:25:21;;;;;;;38.90;26.50;;;;;;;3.79;87.74;100762.36;1753058;81;25160;-68
2020/12/18 01:27:48;;;;;;;36.43;24.23;;;;;;;3.79;87.83;100765.83;1753083;81;25159;-68
2020/12/18 01:30:15;;;;;;;36.07;24.00;;;;;;;3.83;87.98;100762.22;1753049;81;25082;-68
2020/12/18 01:32:44;;;;;;;35.57;23.27;;;;;;;3.85;87.95;100762.17;1752910;81;25211;-68
2020/12/18 01:35:11;;;;;;;36.03;25.10;;;;;;;3.83;87.99;100769.19;1753006;81;25066;-68
2020/12/18 01:37:39;;;;;;;35.47;23.03;;;;;;;3.84;88.13;100766.53;1752471;81;25141;-67
2020/12/18 01:40:08;;;;;;;34.00;24.23;;;;;;;3.90;88.20;100771.98;1752943;81;25310;-67
2020/12/18 01:42:36;;;;;;;37.63;24.47;;;;;;;3.94;88.02;100767.53;1752678;81;25772;-67
2020/12/18 01:45:04;;;;;;;37.07;25.03;;;;;;;3.96;87.81;100773.10;1753024;81;25222;-67
2020/12/18 01:47:32;;;;;;;36.40;24.13;;;;;;;3.95;87.53;100768.78;1749630;81;25129;-68
2020/12/18 01:50:01;;;;;;;33.87;23.83;;;;;;;3.96;87.54;100778.31;1752774;81;25341;-68
2020/12/18 01:52:29;;;;;;;34.80;24.37;;;;;;;3.93;87.58;100775.80;1729636;81;25141;-67
2020/12/18 01:55:01;;;;;;;35.43;23.87;;;;;;;3.92;87.70;100772.78;1729967;81;25606;-67
2020/12/18 01:57:29;;;;;;;36.37;24.17;;;;;;;3.94;87.82;100776.21;1753073;81;25144;-67
2020/12/18 02:00:00;;;;;;;32.50;23.53;;;;;;;3.98;87.91;100786.91;1729830;81;25607;-67
2020/12/18 02:02:36;;;;;;;32.70;23.60;;;;;;;4.04;87.95;100777.62;1849750;76;26884;-67
2020/12/18 02:05:05;;;;;;;31.17;22.80;;;;;;;4.01;87.97;100776.41;1818988;78;25654;-67
2020/12/18 02:07:32;;;;;;;32.50;22.87;;;;;;;4.02;88.03;100784.63;1819864;78;25206;-67
2020/12/18 02:10:00;;;;;;;31.67;21.10;;;;;;;4.07;88.02;100786.64;1815876;77;25294;-67
2020/12/18 02:12:29;;;;;;;29.83;22.23;;;;;;;4.15;87.99;100787.67;1818896;77;25340;-67
2020/12/18 02:14:56;;;;;;;29.53;21.73;;;;;;;4.15;87.85;100785.07;1819925;77;25176;-67
2020/12/18 02:17:24;;;;;;;32.23;21.77;;;;;;;4.15;87.87;100785.07;1819642;78;25180;-67
2020/12/18 02:19:54;;;;;;;28.37;21.10;;;;;;;4.18;87.89;100782.83;1819927;77;25280;-67
2020/12/18 02:22:23;;;;;;;27.73;20.10;;;;;;;4.20;87.92;100784.93;1819721;77;25267;-67
2020/12/18 02:25:03;;;;;;;30.37;21.67;;;;;;;4.33;88.05;100782.78;1818388;78;26890;-69
2020/12/18 02:27:31;;;;;;;29.83;21.77;;;;;;;4.35;87.88;100783.11;1789584;79;25741;-68
2020/12/18 02:30:00;;;;;;;30.90;22.80;;;;;;;4.41;87.32;100785.52;1726695;80;25720;-69
2020/12/18 02:32:27;;;;;;;27.67;21.57;;;;;;;4.42;87.39;100783.33;1789405;79;25186;-66
2020/12/18 02:34:56;;;;;;;29.13;20.83;;;;;;;4.45;87.19;100787.57;1788253;80;25688;-68
2020/12/18 02:37:24;;;;;;;26.53;19.97;;;;;;;4.48;87.00;100786.63;1788847;80;25281;-68
2020/12/18 02:39:58;;;;;;;27.87;20.43;;;;;;;4.46;86.87;100786.22;1789545;79;25604;-68
2020/12/18 02:42:26;;;;;;;29.60;20.90;;;;;;;4.46;86.89;100787.52;1786649;79;25268;-67
2020/12/18 02:44:53;;;;;;;27.77;20.17;;;;;;;4.44;87.01;100791.06;1789308;79;25755;-67
2020/12/18 02:47:31;;;;;;;25.93;20.03;;;;;;;4.50;86.97;100787.42;1889338;76;27504;-67
2020/12/18 02:49:58;;;;;;;26.97;20.00;;;;;;;4.45;86.99;100789.72;1856342;77;25281;-67
2020/12/18 02:52:26;;;;;;;29.90;21.27;;;;;;;4.45;86.90;100788.41;1823345;78;25248;-67
2020/12/18 02:55:15;;;;;;;28.47;21.07;;;;;;;4.50;86.61;100790.88;1818453;78;27457;-67
2020/12/18 02:57:47;;;;;;;26.60;19.70;;;;;;;4.43;86.65;100798.50;1785418;79;25232;-67
2020/12/18 03:00:32;;;;;;;27.03;19.80;;;;;;;4.48;86.84;100799.66;1849844;76;26863;-67
2020/12/18 03:02:59;;;;;;;24.97;18.77;;;;;;;4.42;86.78;100800.27;1819861;78;25175;-67
2020/12/18 03:05:28;;;;;;;27.37;18.67;;;;;;;4.41;86.84;100799.85;1819563;77;25266;-67
2020/12/18 03:08:16;;;;;;;24.67;18.70;;;;;;;4.50;86.91;100797.84;1849894;75;26953;-67
2020/12/18 03:10:47;;;;;;;25.23;18.10;;;;;;;4.41;86.83;100799.85;1788132;78;25191;-69
2020/12/18 03:13:13;;;;;;;26.30;18.13;;;;;;;4.42;86.97;100797.66;1820163;77;25275;-69
2020/12/18 03:15:41;;;;;;;27.67;19.13;;;;;;;4.42;87.02;100805.47;1819957;77;25696;-69
2020/12/18 03:18:18;;;;;;;23.90;18.47;;;;;;;4.50;87.11;100801.75;1779108;79;26868;-66
2020/12/18 03:20:45;;;;;;;27.23;20.07;;;;;;;4.46;87.17;100801.01;1751707;82;25604;-68
2020/12/18 03:23:40;;;;;;;25.83;18.60;;;;;;;4.53;87.05;100793.37;1889457;76;26811;-69
2020/12/18 03:26:08;;;;;;;27.57;19.40;;;;;;;4.50;86.96;100808.27;1856345;77;25241;-68
2020/12/18 03:28:45;;;;;;;24.70;18.70;;;;;;;4.56;86.71;100799.80;1811607;78;26991;-68
2020/12/18 03:31:14;;;;;;;24.83;18.40;;;;;;;4.51;86.74;100796.92;1797441;79;25730;-67
2020/12/18 03:33:42;;;;;;;26.33;18.50;;;;;;;4.51;86.73;100800.83;1797308;79;25075;-67
2020/12/18 03:36:21;;;;;;;24.20;18.50;;;;;;;4.52;86.75;100806.45;1889302;76;27451;-67
2020/12/18 03:38:48;;;;;;;24.57;17.57;;;;;;;4.41;86.83;100796.41;1860229;77;25055;-67
2020/12/18 03:41:15;;;;;;;25.47;18.27;;;;;;;4.37;86.89;100809.11;1860098;77;25261;-66
2020/12/18 03:43:43;;;;;;;26.00;18.23;;;;;;;4.30;86.95;100812.37;1860068;77;25250;-67
2020/12/18 03:46:14;;;;;;;24.97;18.63;;;;;;;4.24;87.09;100819.06;1860102;77;25234;-67
2020/12/18 03:48:53;;;;;;;25.20;18.73;;;;;;;4.21;87.24;100818.73;1860072;77;25197;-68
2020/12/18 03:51:32;;;;;;;24.90;18.67;;;;;;;4.25;87.30;100814.27;1824408;76;26828;-66
2020/12/18 03:53:59;;;;;;;26.13;19.43;;;;;;;4.19;87.44;100819.24;1787493;79;25685;-67
2020/12/18 03:56:33;;;;;;;26.00;19.93;;;;;;;4.19;87.40;100818.37;1787304;79;25633;-66
2020/12/18 03:59:12;;;;;;;23.20;18.03;;;;;;;4.20;87.23;100814.41;1849816;76;26804;-67
2020/12/18 04:01:57;;;;;;;24.63;18.00;;;;;;;4.13;87.21;100815.98;1819890;78;25219;-68
2020/12/18 04:04:25;;;;;;;22.47;16.37;;;;;;;4.08;87.17;100816.12;1819779;78;25709;-67
2020/12/18 04:06:54;;;;;;;23.70;17.13;;;;;;;4.04;87.18;100815.37;1819768;77;25195;-67
2020/12/18 04:09:22;;;;;;;21.87;16.67;;;;;;;4.00;87.24;100819.41;1788310;78;25267;-67
2020/12/18 04:11:50;;;;;;;23.17;16.60;;;;;;;3.96;87.34;100813.45;1818289;77;25673;-67
2020/12/18 04:14:29;;;;;;;21.33;16.70;;;;;;;3.97;87.58;100816.47;1889344;75;26953;-67
2020/12/18 04:16:58;;;;;;;22.50;16.47;;;;;;;3.94;87.65;100817.86;1852870;77;25296;-68
2020/12/18 04:19:25;;;;;;;24.60;17.10;;;;;;;3.96;87.70;100819.12;1860207;77;25301;-67
2020/12/18 04:21:52;;;;;;;20.83;15.90;;;;;;;3.95;87.78;100813.03;1860083;77;25264;-68
2020/12/18 04:24:38;;;;;;;26.40;17.27;;;;;;;3.97;87.90;100821.67;1860129;77;25269;-68
2020/12/18 04:27:05;;;;;;;22.47;17.37;;;;;;;4.00;87.95;100818.95;1860232;77;25285;-69
2020/12/18 04:29:32;;;;;;;21.53;15.93;;;;;;;4.02;87.95;100824.11;1860180;77;25698;-68
2020/12/18 04:32:00;;;;;;;21.43;16.27;;;;;;;4.02;88.04;100821.08;1860175;77;25641;-68
2020/12/18 04:34:27;;;;;;;23.00;16.53;;;;;;;4.06;88.06;100828.34;1860083;77;25492;-68
2020/12/18 04:37:03;;;;;;;25.80;20.50;;;;;;;4.15;88.11;100824.59;1818311;78;26888;-67
2020/12/18 04:39:32;;;;;;;32.53;25.63;;;;;;;4.14;88.03;100829.38;1785526;79;25235;-67
2020/12/18 04:41:59;;;;;;;34.97;29.90;;;;;;;4.12;87.82;100831.19;1789586;79;25269;-68
2020/12/18 04:44:26;;;;;;;40.00;34.57;;;;;;;4.09;87.58;100825.19;1738260;80;25290;-68
2020/12/18 04:46:55;;;;;;;44.03;38.97;;;;;;;4.02;87.55;100827.59;1789404;80;25265;-67
2020/12/18 04:49:22;;;;;;;59.93;49.87;;;;;;;4.00;87.59;100828.52;1762992;80;25209;-67
2020/12/18 04:51:52;;;;;;;51.83;43.73;;;;;;;3.92;87.69;100826.14;1746651;80;25213;-68
2020/12/18 04:54:23;;;;;;;45.90;36.97;;;;;;;3.89;87.83;100827.56;1782839;79;25700;-68
2020/12/18 04:56:52;;;;;;;38.93;30.93;;;;;;;3.87;87.94;100835.84;1783843;79;25218;-68
2020/12/18 04:59:23;;;;;;;41.37;28.83;;;;;;;3.85;87.99;100829.84;1734008;80;25221;-68
2020/12/18 05:02:05;;;;;;;41.40;27.90;;;;;;;3.88;88.11;100833.20;1849782;76;26839;-66
2020/12/18 05:04:40;;;;;;;46.73;32.33;;;;;;;3.81;88.22;100841.26;1819475;77;25179;-67
2020/12/18 05:07:19;;;;;;;54.60;35.03;;;;;;;3.86;88.37;100840.67;1849785;76;26854;-67
2020/12/18 05:09:54;;;;;;;48.77;32.33;;;;;;;3.81;88.61;100849.06;1819591;77;25256;-67
2020/12/18 05:12:22;;;;;;;48.73;32.30;;;;;;;3.80;88.56;100852.55;1815004;77;25243;-66
2020/12/18 05:14:49;;;;;;;48.70;29.73;;;;;;;3.81;88.67;100853.81;1819826;78;25320;-68
2020/12/18 05:17:25;;;;;;;43.77;30.17;;;;;;;3.83;88.69;100848.56;1818105;78;25270;-67
2020/12/18 05:19:52;;;;;;;37.23;23.87;;;;;;;3.82;88.67;100850.75;1819849;77;25215;-67
2020/12/18 05:22:37;;;;;;;39.37;25.23;;;;;;;3.85;88.79;100854.11;1889351;76;27323;-67
2020/12/18 05:25:18;;;;;;;48.30;31.40;;;;;;;3.77;88.69;100852.64;1857795;77;25264;-67
2020/12/18 05:27:49;;;;;;;43.07;26.40;;;;;;;3.73;88.59;100858.84;1860113;77;25269;-66
2020/12/18 05:30:22;;;;;;;43.87;26.73;;;;;;;3.69;88.45;100857.63;1801560;77;25680;-67
2020/12/18 05:33:07;;;;;;;37.83;25.07;;;;;;;3.68;88.40;100859.81;1889306;76;26848;-67
2020/12/18 05:35:36;;;;;;;39.43;26.47;;;;;;;3.60;88.43;100863.55;1857763;77;25241;-66
2020/12/18 05:38:04;;;;;;;38.23;24.50;;;;;;;3.55;88.41;100868.88;1858975;77;25695;-66
2020/12/18 05:40:50;;;;;;;41.60;25.10;;;;;;;3.54;88.49;100865.89;1860251;77;25186;-67
2020/12/18 05:43:24;;;;;;;30.53;20.80;;;;;;;3.51;88.43;100868.11;1859385;77;25668;-67
2020/12/18 05:45:54;;;;;;;32.30;21.87;;;;;;;3.46;88.45;100863.95;1857960;77;25308;-66
2020/12/18 05:48:33;;;;;;;36.30;24.00;;;;;;;3.51;88.49;100868.57;1849809;76;26857;-67
2020/12/18 05:51:05;;;;;;;35.33;22.63;;;;;;;3.44;88.49;100876.99;1799059;77;25209;-66
2020/12/18 05:53:32;;;;;;;30.17;20.33;;;;;;;3.42;88.45;100877.92;1732351;80;25265;-67
2020/12/18 05:56:00;;;;;;;31.80;22.00;;;;;;;3.39;88.47;100884.08;1786642;79;25277;-66
2020/12/18 05:58:37;;;;;;;30.27;21.43;;;;;;;3.45;88.44;100877.41;1889360;76;26972;-67
2020/12/18 06:01:06;;;;;;;34.43;21.10;;;;;;;3.40;88.40;100878.41;1823033;77;25049;-67
2020/12/18 06:03:45;;;;;;;50.07;32.33;;;;;;;3.41;88.35;100876.23;1889365;75;27534;-67
2020/12/18 06:06:12;;;;;;;55.37;35.07;;;;;;;3.34;88.18;100881.59;1860177;77;25329;-67
2020/12/18 06:08:41;;;;;;;64.17;38.97;;;;;;;3.32;88.12;100885.99;1860095;77;25815;-67
2020/12/18 06:11:12;;;;;;;62.53;39.83;;;;;;;3.28;88.00;100881.75;1859976;77;25300;-67
2020/12/18 06:13:55;;;;;;;50.97;32.20;;;;;;;3.28;88.12;100884.81;1849798;75;26814;-68
2020/12/18 06:16:48;;;;;;;49.00;32.00;;;;;;;3.22;88.17;100887.14;1817346;77;25283;-67
2020/12/18 06:19:27;;;;;;;57.00;33.23;;;;;;;3.22;88.17;100884.54;1820306;77;26932;-67
2020/12/18 06:21:57;;;;;;;84.87;44.10;;;;;;;3.12;88.17;100893.48;1798322;78;25193;-66
2020/12/18 06:24:26;;;;;;;65.93;36.80;;;;;;;3.10;88.31;100897.42;1823394;78;25281;-67
2020/12/18 06:27:04;;;;;;;60.87;33.07;;;;;;;3.10;88.45;100896.55;1826711;78;25281;-66
2020/12/18 06:29:32;;;;;;;55.23;32.00;;;;;;;3.11;88.49;100897.81;1742353;78;25376;-67
2020/12/18 06:32:31;;;;;;;41.63;25.87;;;;;;;3.14;88.46;100904.69;1889317;76;27002;-67
2020/12/18 06:35:33;;;;;;;37.33;22.83;;;;;;;3.08;88.42;100908.73;1855590;77;25296;-69
2020/12/18 06:38:23;;;;;;;43.33;25.43;;;;;;;2.96;88.33;100913.34;1860246;77;25264;-66
2020/12/18 06:41:20;;;;;;;66.47;35.17;;;;;;;2.95;88.33;100912.96;1889353;76;26855;-67
2020/12/18 06:43:50;;;;;;;62.97;34.73;;;;;;;2.91;88.46;100915.22;1857017;77;25198;-67
2020/12/18 06:46:19;;;;;;;55.10;31.27;;;;;;;2.88;88.60;100922.23;1858518;77;25182;-67
2020/12/18 06:49:04;;;;;;;48.80;30.43;;;;;;;2.91;88.91;100924.31;1860207;77;25304;-67
2020/12/18 06:51:50;;;;;;;51.07;31.07;;;;;;;2.91;88.91;100929.96;1856558;77;25184;-68
2020/12/18 06:54:26;;;;;;;44.17;28.93;;;;;;;2.92;88.93;100926.48;1818265;78;26876;-67
2020/12/18 06:57:21;;;;;;;46.47;29.50;;;;;;;2.84;89.14;100932.31;1788789;80;25354;-68
2020/12/18 06:59:51;;;;;;;49.43;31.07;;;;;;;2.83;89.25;100937.94;1789630;79;25268;-68
2020/12/18 07:02:40;;;;;;;64.90;36.93;;;;;;;2.82;89.38;100938.84;1789257;79;25826;-68
2020/12/18 07:05:39;;;;;;;70.43;40.20;;;;;;;2.79;89.39;100937.62;1789515;79;25617;-69
2020/12/18 07:08:15;;;;;;;87.97;46.07;;;;;;;2.75;89.43;100934.24;1789097;80;25186;-69
2020/12/18 07:10:48;;;;;;;79.00;43.30;;;;;;;2.74;89.61;100940.32;1789467;80;25834;-68
2020/12/18 07:16:04;;;;;;;73.67;41.50;;;;;;;2.79;89.57;100951.45;1818323;78;26387;-68
2020/12/18 07:18:40;;;;;;;63.70;35.43;;;;;;;2.73;89.71;100950.33;1765665;79;25242;-68
2020/12/18 07:21:14;;;;;;;62.20;35.30;;;;;;;2.77;89.68;100953.23;1789494;79;25312;-68
2020/12/18 07:23:43;;;;;;;64.47;35.00;;;;;;;2.73;89.48;100958.55;1789434;79;25079;-68
2020/12/18 07:26:11;;;;;;;71.70;36.43;;;;;;;2.70;89.42;100953.41;1789604;79;25269;-68
2020/12/18 07:28:40;;;;;;;62.93;32.63;;;;;;;2.65;89.27;100947.05;1789399;80;25235;-68
2020/12/18 07:31:25;;;;;;;48.73;30.10;;;;;;;2.64;89.47;100959.62;1789390;79;25303;-68
2020/12/18 07:33:55;;;;;;;53.63;31.87;;;;;;;2.63;89.52;100959.23;1789297;80;25699;-67
2020/12/18 07:36:23;;;;;;;55.33;32.47;;;;;;;2.64;89.61;100963.97;1785725;79;25146;-69
2020/12/18 07:38:51;;;;;;;70.70;37.10;;;;;;;2.65;89.70;100964.36;1789403;79;25289;-69
2020/12/18 07:41:18;;;;;;;64.57;36.00;;;;;;;2.66;89.79;100964.78;1789315;79;25305;-69
2020/12/18 07:43:48;;;;;;;67.70;37.77;;;;;;;2.72;89.91;100960.30;1739686;80;25294;-68
2020/12/18 07:46:19;;;;;;;70.83;38.27;;;;;;;2.76;89.94;100963.22;1789600;79;25115;-67
2020/12/18 07:48:47;;;;;;;96.37;51.30;;;;;;;2.81;89.93;100963.11;1789452;80;25167;-67
2020/12/18 07:51:20;;;;;;;86.77;43.03;;;;;;;2.85;89.96;100969.08;1788680;79;25707;-68
2020/12/18 07:53:53;;;;;;;76.23;40.70;;;;;;;2.90;89.99;100968.52;1789428;79;25270;-67
2020/12/18 07:56:24;;;;;;;73.07;39.27;;;;;;;2.97;89.96;100970.11;1789510;80;25666;-68
2020/12/18 07:59:00;;;;;;;80.90;41.97;;;;;;;3.02;89.94;100965.64;1789484;80;25229;-67
2020/12/18 08:01:29;;;;;;;57.70;29.30;;;;;;;3.13;89.94;100969.27;1789337;79;25285;-68
2020/12/18 08:04:02;;;;;;;40.87;23.63;;;;;;;3.24;89.88;100971.15;1789061;79;25090;-69
2020/12/18 08:06:33;;;;;;;27.93;16.60;;;;;;;3.36;89.72;100968.67;1789522;80;25213;-66
2020/12/18 08:09:07;;;;;;;28.10;17.67;;;;;;;3.47;89.44;100974.88;1789394;80;25217;-67
2020/12/18 08:14:21;;;;;;;29.77;17.23;;;;;;;3.60;88.58;100971.52;1849799;76;26588;-66
2020/12/18 08:16:48;;;;;;;40.93;22.13;;;;;;;3.51;88.17;100979.97;1819831;78;25246;-67
2020/12/18 08:19:14;;;;;;;32.60;21.90;;;;;;;3.47;88.27;100982.26;1819834;77;25302;-67
2020/12/18 08:21:46;;;;;;;36.30;24.00;;;;;;;3.45;88.36;100988.38;1819608;77;25249;-67
2020/12/18 08:24:26;;;;;;;38.27;26.07;;;;;;;3.45;88.43;100987.08;1819666;77;25302;-68
2020/12/18 08:27:11;;;;;;;42.40;26.50;;;;;;;3.41;88.53;100981.11;1819741;77;25736;-67
2020/12/18 08:29:38;;;;;;;37.43;24.20;;;;;;;3.44;88.64;100984.09;1789185;78;25195;-67
2020/12/18 08:32:05;;;;;;;38.80;25.03;;;;;;;3.45;88.59;100980.58;1788071;78;25646;-68
2020/12/18 08:34:33;;;;;;;34.40;23.23;;;;;;;3.43;88.66;100978.47;1819815;78;25203;-67
2020/12/18 08:37:04;;;;;;;33.13;21.43;;;;;;;3.44;88.66;100981.49;1819786;78;25208;-68
2020/12/18 08:39:33;;;;;;;36.33;23.07;;;;;;;3.42;88.65;100984.12;1788308;78;25180;-67
2020/12/18 08:42:03;;;;;;;29.60;19.83;;;;;;;3.44;88.73;100990.14;1788907;78;25396;-69
2020/12/18 08:44:42;;;;;;;35.57;21.67;;;;;;;3.48;88.71;100984.41;1819968;77;25230;-68
2020/12/18 08:47:28;;;;;;;31.97;20.83;;;;;;;3.50;88.60;100992.59;1819828;78;25247;-68
2020/12/18 08:49:57;;;;;;;27.43;17.37;;;;;;;3.50;88.61;100988.69;1816725;77;25603;-68
2020/12/18 08:52:26;;;;;;;26.23;17.20;;;;;;;3.53;88.64;100995.08;1786935;80;25759;-67
2020/12/18 08:55:01;;;;;;;29.33;16.47;;;;;;;3.60;88.63;101000.98;1787618;79;25368;-67
2020/12/18 08:57:31;;;;;;;21.63;15.03;;;;;;;3.66;88.52;100994.77;1787282;80;25206;-68
2020/12/18 09:00:11;;;;;;;24.27;17.77;;;;;;;3.70;88.36;101003.77;1787606;80;25221;-68
2020/12/18 09:02:45;;;;;;;22.27;15.63;;;;;;;3.78;88.49;101003.54;1787607;80;25601;-69
2020/12/18 09:05:24;;;;;;;22.90;15.80;;;;;;;3.87;88.03;101005.91;1757207;80;25953;-68
2020/12/18 09:08:02;;;;;;;20.93;15.30;;;;;;;3.90;87.66;101007.55;1787588;79;25605;-67
2020/12/18 09:10:59;;;;;;;22.00;14.83;;;;;;;3.87;87.69;101010.23;1787529;79;25144;-67
2020/12/18 09:13:29;;;;;;;22.80;15.07;;;;;;;3.90;87.69;101007.55;1781876;79;25609;-69
2020/12/18 09:16:06;;;;;;;21.17;15.53;;;;;;;3.92;87.67;101006.20;1772684;80;25290;-68
2020/12/18 09:18:38;;;;;;;20.57;14.73;;;;;;;4.02;87.56;101016.34;1771136;79;25218;-68
2020/12/18 09:21:14;;;;;;;20.97;14.87;;;;;;;4.09;87.51;101017.86;1770812;80;25703;-69
2020/12/18 09:23:42;;;;;;;20.83;14.90;;;;;;;4.13;87.07;101016.02;1771216;79;25182;-68
2020/12/18 09:26:09;;;;;;;27.10;18.97;;;;;;;4.17;86.91;101015.48;1770470;80;25518;-68
2020/12/18 09:28:41;;;;;;;28.70;19.17;;;;;;;4.20;86.85;101011.48;1770626;79;25629;-67
2020/12/18 09:31:08;;;;;;;23.33;17.20;;;;;;;4.25;86.70;101009.60;1770639;81;25320;-67
2020/12/18 09:33:40;;;;;;;21.97;14.33;;;;;;;4.28;86.37;101011.66;1770554;79;25195;-68
2020/12/18 09:36:10;;;;;;;21.30;14.30;;;;;;;4.30;86.43;101016.83;1770559;81;25709;-68
2020/12/18 09:38:48;;;;;;;21.23;15.00;;;;;;;4.37;86.22;101007.08;1770542;81;25230;-67
2020/12/18 09:41:18;;;;;;;20.50;14.77;;;;;;;4.39;86.37;101003.98;1770664;79;25290;-68
2020/12/18 09:43:46;;;;;;;21.07;14.50;;;;;;;4.45;86.38;100999.89;1724174;79;25274;-68
2020/12/18 09:46:13;;;;;;;17.43;13.67;;;;;;;4.51;85.98;101002.33;1770777;79;25309;-67
2020/12/18 09:48:46;;;;;;;20.80;13.97;;;;;;;4.54;86.05;100996.15;1770600;79;25618;-68
2020/12/18 09:51:14;;;;;;;21.70;15.13;;;;;;;4.60;86.01;100998.58;1770652;79;25598;-68
2020/12/18 09:53:41;;;;;;;21.57;15.80;;;;;;;4.67;85.69;100991.42;1770574;81;25191;-68
2020/12/18 09:56:10;;;;;;;22.90;16.70;;;;;;;4.71;85.54;100990.41;1770656;79;25330;-68
2020/12/18 09:58:39;;;;;;;18.70;13.73;;;;;;;4.73;85.13;100989.48;1770491;79;25191;-69
2020/12/18 10:01:07;;;;;;;20.30;14.47;;;;;;;4.75;84.95;100994.19;1770632;79;25645;-68
2020/12/18 10:03:34;;;;;;;20.83;15.03;;;;;;;4.74;84.96;100991.19;1770535;80;25237;-68
2020/12/18 10:06:01;;;;;;;21.00;14.33;;;;;;;4.77;84.76;100988.47;1770636;79;25258;-67
2020/12/18 10:08:29;;;;;;;17.73;14.00;;;;;;;4.80;84.84;100993.58;1770693;79;25274;-67
2020/12/18 10:10:56;;;;;;;24.07;15.07;;;;;;;4.86;84.78;100989.08;1771052;81;25284;-68
2020/12/18 10:13:23;;;;;;;18.50;14.90;;;;;;;4.91;84.75;100989.78;1769737;80;25287;-68
2020/12/18 10:15:49;;;;;;;20.77;14.57;;;;;;;5.00;84.32;100982.98;1768223;79;25321;-68
2020/12/18 10:18:16;;;;;;;24.50;18.17;;;;;;;5.04;84.35;100983.27;1768816;79;25255;-68
2020/12/18 10:20:44;;;;;;;24.10;15.23;;;;;;;5.07;84.04;100981.86;1749156;79;26073;-68
2020/12/18 10:23:14;;;;;;;26.00;17.93;;;;;;;5.11;83.83;100982.18;1749404;79;25313;-69
2020/12/18 10:25:41;;;;;;;21.43;14.90;;;;;;;5.17;83.77;100981.11;1770510;80;25755;-67
2020/12/18 10:28:08;;;;;;;20.63;15.80;;;;;;;5.22;83.72;100973.14;1770490;79;25258;-68
2020/12/18 10:30:37;;;;;;;21.27;13.53;;;;;;;5.26;83.74;100976.03;1749050;81;25286;-68
2020/12/18 10:33:06;;;;;;;25.70;18.07;;;;;;;5.34;83.17;100971.41;1770706;79;25313;-69
2020/12/18 10:35:33;;;;;;;20.97;14.70;;;;;;;5.36;83.20;100978.72;1770665;79;25164;-67
2020/12/18 10:38:00;;;;;;;24.07;15.10;;;;;;;5.39;83.36;100981.23;1770581;81;25267;-68
2020/12/18 10:40:27;;;;;;;22.83;14.57;;;;;;;5.44;82.84;100979.31;1770424;79;25351;-68
2020/12/18 10:42:55;;;;;;;20.30;15.03;;;;;;;5.46;82.57;100973.58;1770550;81;25326;-68
2020/12/18 10:45:22;;;;;;;21.07;14.90;;;;;;;5.47;82.53;100973.15;1770627;79;25278;-68
2020/12/18 10:47:49;;;;;;;21.97;15.33;;;;;;;5.52;81.80;100968.16;1770397;79;25711;-68
2020/12/18 10:50:15;;;;;;;19.70;13.97;;;;;;;5.53;81.71;100971.17;1770262;79;25700;-68
2020/12/18 10:52:42;;;;;;;20.53;14.20;;;;;;;5.54;82.24;100963.73;1748666;81;25550;-68
2020/12/18 10:55:09;;;;;;;20.17;13.30;;;;;;;5.60;82.29;100963.11;1748837;79;25203;-68
2020/12/18 10:57:36;;;;;;;24.67;16.33;;;;;;;5.64;82.17;100950.37;1770525;79;25254;-68
2020/12/18 11:00:04;;;;;;;28.27;17.03;;;;;;;5.69;82.24;100954.97;1770606;79;25207;-67
2020/12/18 11:02:33;;;;;;;18.87;15.17;;;;;;;5.76;81.91;100956.00;1770490;79;25266;-68
2020/12/18 11:05:00;;;;;;;19.30;14.30;;;;;;;5.79;81.71;100948.96;1770635;79;25438;-67
2020/12/18 11:07:27;;;;;;;19.17;14.50;;;;;;;5.87;80.32;100948.23;1770468;81;25227;-68
2020/12/18 11:09:54;;;;;;;17.77;13.63;;;;;;;5.86;80.36;100949.13;1770597;79;25329;-67
2020/12/18 11:12:21;;;;;;;16.87;12.97;;;;;;;5.86;80.76;100949.13;1748705;81;25814;-68
2020/12/18 11:14:48;;;;;;;19.43;13.37;;;;;;;5.88;80.57;100949.48;1772512;79;25680;-67
2020/12/18 11:17:16;;;;;;;19.13;14.60;;;;;;;5.91;81.18;100954.56;1772884;80;25836;-68
2020/12/18 11:19:42;;;;;;;18.67;13.20;;;;;;;5.98;81.37;100950.00;1745732;80;25251;-68
2020/12/18 11:22:09;;;;;;;19.53;13.73;;;;;;;6.04;80.96;100949.78;1773274;79;25266;-68
2020/12/18 11:24:37;;;;;;;19.30;14.97;;;;;;;6.09;80.91;100956.14;1745743;80;25202;-67
2020/12/18 11:27:04;;;;;;;19.27;14.03;;;;;;;6.12;80.77;100949.50;1773270;79;25202;-67
2020/12/18 11:29:31;;;;;;;18.93;14.87;;;;;;;6.17;81.01;100950.17;1745896;80;25713;-68
2020/12/18 11:31:58;;;;;;;20.60;15.60;;;;;;;6.22;80.90;100951.31;1746476;80;25357;-67
2020/12/18 11:34:28;;;;;;;20.40;14.60;;;;;;;6.26;80.50;100944.58;1773263;79;25569;-67
2020/12/18 11:36:56;;;;;;;22.47;16.57;;;;;;;6.31;80.46;100945.72;1773234;79;25748;-66
2020/12/18 11:39:24;;;;;;;34.80;21.07;;;;;;;6.34;80.55;100946.06;1721788;80;25701;-67
2020/12/18 11:41:52;;;;;;;23.37;15.80;;;;;;;6.36;80.83;100946.39;1773099;79;25174;-67